Time;durP1;ratioP1;P1;durP2;ratioP2;P2;SDS_P1;SDS_P2;PMS_P1;PMS_P2;Temp;Humidity;BMP_temperature;BMP_pressure;BME280_temperature;BME280_humidity;BME280_pressure;Samples;Min_cycle;Max_cycle;Signal;HPM_P1;HPM_P2
2023/06/30 00:00:11;;;;;;;11.43;4.75;;;14.80;99.90;;;;;;4940403;28;20423;-81
2023/06/30 00:02:46;;;;;;;11.02;3.63;;;14.80;99.90;;;;;;4933720;28;20439;-80
2023/06/30 00:05:13;;;;;;;9.43;3.70;;;14.70;99.90;;;;;;4939151;29;20914;-84
2023/06/30 00:07:39;;;;;;;8.95;3.88;;;14.60;99.90;;;;;;4939336;28;20443;-81
2023/06/30 00:10:06;;;;;;;7.50;3.28;;;14.60;99.90;;;;;;4939345;28;20436;-82
2023/06/30 00:12:33;;;;;;;20.85;4.10;;;14.70;99.90;;;;;;4937181;29;20498;-81
2023/06/30 00:14:59;;;;;;;12.02;3.80;;;14.60;99.90;;;;;;4968733;28;20498;-79
2023/06/30 00:17:25;;;;;;;9.45;3.30;;;14.60;99.90;;;;;;4937314;29;20428;-82
2023/06/30 00:19:51;;;;;;;7.60;3.53;;;14.50;99.90;;;;;;4926709;28;20452;-83
2023/06/30 00:22:22;;;;;;;11.37;3.50;;;14.50;99.90;;;;;;4924311;29;20798;-82
2023/06/30 00:24:58;;;;;;;10.80;3.78;;;14.40;99.90;;;;;;4938395;29;20565;-82
2023/06/30 00:27:24;;;;;;;11.68;4.20;;;14.40;99.90;;;;;;4932992;29;20482;-82
2023/06/30 00:29:50;;;;;;;10.87;4.00;;;14.30;99.90;;;;;;4924803;28;20857;-81
2023/06/30 00:32:16;;;;;;;11.95;4.32;;;14.30;99.90;;;;;;4927513;28;20431;-81
2023/06/30 00:34:41;;;;;;;8.60;3.05;;;14.30;99.90;;;;;;4934616;28;20439;-80
2023/06/30 00:37:07;;;;;;;11.13;3.50;;;14.20;99.90;;;;;;4931100;29;20423;-80
2023/06/30 00:39:33;;;;;;;11.65;4.20;;;14.20;99.90;;;;;;4986543;28;20501;-82
2023/06/30 00:41:59;;;;;;;9.70;3.40;;;14.20;99.90;;;;;;4937625;28;20435;-77
2023/06/30 00:44:25;;;;;;;11.63;4.28;;;14.20;99.90;;;;;;4938544;28;20429;-81
2023/06/30 00:46:51;;;;;;;12.00;4.03;;;14.20;99.90;;;;;;4939950;28;20526;-80
2023/06/30 00:49:17;;;;;;;7.72;3.40;;;14.10;99.90;;;;;;4938258;29;20439;-82
2023/06/30 00:51:43;;;;;;;8.25;3.75;;;14.10;99.90;;;;;;4935185;29;20440;-76
2023/06/30 00:54:09;;;;;;;8.63;3.67;;;14.10;99.90;;;;;;4934810;28;20551;-77
2023/06/30 00:56:34;;;;;;;14.13;5.18;;;14.10;99.90;;;;;;4940614;29;20410;-81
2023/06/30 00:59:00;;;;;;;10.27;3.50;;;14.10;99.90;;;;;;4945608;28;20431;-76
2023/06/30 01:01:30;;;;;;;8.35;3.85;;;14.00;99.90;;;;;;4936313;29;20423;-80
2023/06/30 01:04:23;;;;;;;11.65;4.93;;;14.00;99.90;;;;;;4929143;28;20435;-82
2023/06/30 01:07:25;;;;;;;9.88;3.55;;;14.00;99.90;;;;;;4938783;29;20447;-82
2023/06/30 01:10:19;;;;;;;10.65;3.95;;;13.90;99.90;;;;;;4923749;29;20519;-82
2023/06/30 01:12:45;;;;;;;9.18;3.67;;;13.80;99.90;;;;;;4936693;28;20447;-81
2023/06/30 01:15:13;;;;;;;9.37;4.07;;;13.80;99.90;;;;;;4936210;29;20431;-81
2023/06/30 01:17:56;;;;;;;10.00;3.60;;;13.80;99.90;;;;;;4934540;28;20431;-79
2023/06/30 01:20:23;;;;;;;11.25;3.38;;;13.80;99.90;;;;;;4930917;28;20431;-82
2023/06/30 01:22:51;;;;;;;8.53;3.43;;;13.70;99.90;;;;;;4942228;28;20825;-81
2023/06/30 01:25:27;;;;;;;10.10;3.80;;;13.70;99.90;;;;;;4934792;29;21166;-81
2023/06/30 01:27:54;;;;;;;10.30;3.25;;;13.70;99.90;;;;;;4935747;28;20439;-80
2023/06/30 01:30:21;;;;;;;10.10;2.97;;;13.70;99.90;;;;;;4933850;28;20918;-82
2023/06/30 01:32:50;;;;;;;7.88;3.00;;;13.70;99.90;;;;;;4933432;28;20968;-77
2023/06/30 01:35:16;;;;;;;5.23;2.53;;;13.70;99.90;;;;;;4929414;28;20437;-81
2023/06/30 01:37:42;;;;;;;8.68;3.20;;;13.60;99.90;;;;;;4927133;28;20518;-79
2023/06/30 01:40:08;;;;;;;9.13;3.30;;;13.60;99.90;;;;;;4933515;28;20454;-81
2023/06/30 01:42:35;;;;;;;7.18;3.15;;;13.50;99.90;;;;;;4932743;29;20447;-79
2023/06/30 01:45:02;;;;;;;10.18;3.15;;;13.50;99.90;;;;;;4935801;28;20438;-81
2023/06/30 01:47:29;;;;;;;11.90;3.77;;;13.50;99.90;;;;;;4935160;29;20481;-81
2023/06/30 01:49:56;;;;;;;7.95;2.90;;;13.50;99.90;;;;;;4934641;28;20427;-83
2023/06/30 01:52:21;;;;;;;10.52;3.83;;;13.50;99.90;;;;;;4928768;28;20435;-76
2023/06/30 01:54:47;;;;;;;12.55;4.30;;;13.50;99.90;;;;;;4935238;28;20570;-83
2023/06/30 01:57:13;;;;;;;10.45;4.30;;;13.50;99.90;;;;;;4935640;28;20433;-83
2023/06/30 01:59:38;;;;;;;9.95;3.72;;;13.50;99.90;;;;;;4918347;28;20416;-79
2023/06/30 02:02:04;;;;;;;9.33;2.97;;;13.50;99.90;;;;;;4935188;29;20432;-82
2023/06/30 02:04:30;;;;;;;9.60;3.50;;;13.50;99.90;;;;;;4934516;29;20430;-79
2023/06/30 02:06:56;;;;;;;6.17;2.80;;;13.40;99.90;;;;;;4934180;29;20423;-77
2023/06/30 02:09:21;;;;;;;10.33;3.63;;;13.40;99.90;;;;;;4932996;28;20459;-81
2023/06/30 02:11:47;;;;;;;6.25;3.42;;;13.30;99.90;;;;;;4932101;29;20412;-81
2023/06/30 02:14:13;;;;;;;9.48;3.65;;;13.30;99.90;;;;;;4932388;28;20448;-78
2023/06/30 02:16:38;;;;;;;10.70;3.83;;;13.20;99.90;;;;;;4933340;29;20878;-81
2023/06/30 02:19:04;;;;;;;7.50;3.97;;;13.10;99.90;;;;;;4926347;29;20495;-82
2023/06/30 02:21:30;;;;;;;8.23;3.50;;;13.10;99.90;;;;;;4933664;29;20438;-79
2023/06/30 02:23:55;;;;;;;9.13;3.87;;;13.10;99.90;;;;;;4935158;28;20450;-83
2023/06/30 02:26:21;;;;;;;6.00;3.65;;;13.00;99.90;;;;;;4940857;28;20442;-82
2023/06/30 02:28:47;;;;;;;7.65;3.67;;;13.10;99.90;;;;;;4930612;28;20447;-82
2023/06/30 02:31:12;;;;;;;11.10;4.15;;;13.10;99.90;;;;;;4939332;29;21062;-82
2023/06/30 02:33:38;;;;;;;9.70;4.27;;;13.00;99.90;;;;;;4933584;28;20436;-83
2023/06/30 02:36:04;;;;;;;6.97;3.60;;;12.90;99.90;;;;;;4934569;28;20408;-83
2023/06/30 02:38:31;;;;;;;7.13;3.60;;;12.90;99.90;;;;;;4930561;28;20454;-81
2023/06/30 02:40:57;;;;;;;7.25;3.75;;;12.90;99.90;;;;;;4933073;28;20435;-80
2023/06/30 02:43:23;;;;;;;7.25;3.63;;;12.90;99.90;;;;;;4921559;28;20431;-79
2023/06/30 02:45:48;;;;;;;8.43;3.83;;;12.90;99.90;;;;;;4901867;29;20472;-80
2023/06/30 02:48:14;;;;;;;9.50;4.50;;;12.80;99.90;;;;;;4928110;29;20443;-82
2023/06/30 02:50:40;;;;;;;7.07;3.60;;;12.80;99.90;;;;;;4918015;29;20446;-82
2023/06/30 02:53:06;;;;;;;6.63;3.43;;;12.80;99.90;;;;;;4933592;29;20424;-82
2023/06/30 02:55:33;;;;;;;10.45;3.85;;;12.80;99.90;;;;;;4932584;28;20955;-79
2023/06/30 02:57:58;;;;;;;8.77;4.05;;;12.70;99.90;;;;;;4915956;28;20455;-81
2023/06/30 03:00:24;;;;;;;8.87;4.30;;;12.70;99.90;;;;;;4932907;29;20505;-80
2023/06/30 03:02:50;;;;;;;7.70;4.07;;;12.70;99.90;;;;;;4934313;29;20491;-82
2023/06/30 03:05:16;;;;;;;8.23;4.00;;;12.70;99.90;;;;;;4933710;28;20910;-78
2023/06/30 03:07:42;;;;;;;10.70;4.67;;;12.70;99.90;;;;;;4919599;28;20465;-83
2023/06/30 03:10:08;;;;;;;14.10;5.90;;;12.70;99.90;;;;;;4933450;28;20494;-77
2023/06/30 03:12:33;;;;;;;8.90;4.28;;;12.70;99.90;;;;;;4917077;28;20943;-81
2023/06/30 03:14:59;;;;;;;7.00;3.33;;;12.60;99.90;;;;;;4933279;28;20427;-83
2023/06/30 03:17:25;;;;;;;12.43;3.92;;;12.60;99.90;;;;;;4921078;29;20429;-80
2023/06/30 03:19:50;;;;;;;12.18;5.47;;;12.70;99.90;;;;;;4928061;29;21059;-82
2023/06/30 03:22:16;;;;;;;6.70;3.83;;;12.60;99.90;;;;;;4932278;28;20450;-81
2023/06/30 03:24:41;;;;;;;8.20;4.10;;;12.60;99.90;;;;;;4932871;29;20820;-80
2023/06/30 03:27:07;;;;;;;10.27;5.00;;;12.60;99.90;;;;;;4932095;28;20476;-81
2023/06/30 03:29:33;;;;;;;11.10;3.53;;;12.50;99.90;;;;;;4933034;28;20443;-80
2023/06/30 03:31:58;;;;;;;11.70;4.43;;;12.70;99.90;;;;;;4933564;29;20430;-79
2023/06/30 03:34:24;;;;;;;10.93;3.65;;;12.60;99.90;;;;;;4931908;28;21048;-81
2023/06/30 03:36:50;;;;;;;10.20;3.40;;;12.60;99.90;;;;;;4933383;29;20431;-81
2023/06/30 03:39:16;;;;;;;10.00;3.78;;;12.50;99.90;;;;;;4930277;28;20965;-78
2023/06/30 03:41:41;;;;;;;10.43;3.97;;;12.50;99.90;;;;;;4932596;29;20431;-80
2023/06/30 03:44:07;;;;;;;13.13;4.60;;;12.50;99.90;;;;;;4927843;28;20532;-81
2023/06/30 03:46:33;;;;;;;7.80;3.60;;;12.50;99.90;;;;;;4930150;29;20420;-81
2023/06/30 03:48:59;;;;;;;8.10;3.88;;;12.60;99.90;;;;;;4932699;29;20513;-83
2023/06/30 03:51:24;;;;;;;9.02;3.50;;;12.60;99.90;;;;;;4939037;28;20771;-77
2023/06/30 03:53:50;;;;;;;8.32;3.97;;;12.60;99.90;;;;;;4938886;28;20447;-77
2023/06/30 03:56:16;;;;;;;7.25;3.55;;;12.50;99.90;;;;;;4937247;28;20488;-81
2023/06/30 03:58:42;;;;;;;9.05;3.95;;;12.60;99.90;;;;;;4927041;28;20437;-79
2023/06/30 04:01:07;;;;;;;7.15;4.13;;;12.60;99.90;;;;;;4926883;29;20435;-80
2023/06/30 04:03:33;;;;;;;9.33;3.77;;;12.60;99.90;;;;;;4935276;29;20515;-82
2023/06/30 04:05:59;;;;;;;9.97;4.03;;;12.70;99.90;;;;;;4934089;28;20485;-82
2023/06/30 04:08:25;;;;;;;7.67;3.90;;;12.70;99.90;;;;;;4935276;28;20443;-81
2023/06/30 04:10:50;;;;;;;11.93;4.27;;;12.70;99.90;;;;;;4932503;29;20970;-80
2023/06/30 04:13:16;;;;;;;8.00;3.70;;;12.90;99.90;;;;;;4934234;29;20942;-81
2023/06/30 04:15:42;;;;;;;10.97;3.70;;;12.90;99.90;;;;;;4935836;28;20426;-82
2023/06/30 04:18:11;;;;;;;10.37;3.80;;;13.10;99.90;;;;;;4935973;29;20428;-84
2023/06/30 04:20:49;;;;;;;6.93;3.58;;;13.10;99.90;;;;;;4935213;29;20456;-82
2023/06/30 04:23:14;;;;;;;11.17;3.83;;;13.00;99.90;;;;;;4934895;28;20432;-77
2023/06/30 04:25:40;;;;;;;6.20;3.73;;;12.90;99.90;;;;;;4933893;29;20463;-83
2023/06/30 04:28:06;;;;;;;12.73;4.47;;;13.00;99.90;;;;;;4939102;28;20447;-82
2023/06/30 04:30:31;;;;;;;9.00;3.78;;;13.00;99.90;;;;;;4920858;28;20424;-82
2023/06/30 04:32:57;;;;;;;8.90;3.97;;;13.10;99.90;;;;;;4920487;28;20506;-82
2023/06/30 04:35:25;;;;;;;9.03;3.60;;;13.40;99.90;;;;;;4937346;29;20527;-83
2023/06/30 04:37:54;;;;;;;8.25;3.30;;;14.40;99.90;;;;;;4937711;29;20432;-82
2023/06/30 04:40:19;;;;;;;6.55;3.63;;;14.10;99.90;;;;;;4935240;29;20428;-78
2023/06/30 04:42:46;;;;;;;9.57;3.43;;;14.00;99.90;;;;;;4937994;28;20940;-81
2023/06/30 04:45:12;;;;;;;10.18;3.28;;;13.80;99.90;;;;;;4913053;29;20438;-77
2023/06/30 04:47:37;;;;;;;9.05;3.45;;;13.70;99.90;;;;;;4916866;28;20550;-82
2023/06/30 04:50:04;;;;;;;7.35;3.28;;;13.70;99.90;;;;;;4938664;29;20423;-83
2023/06/30 04:52:29;;;;;;;8.95;2.97;;;13.80;99.90;;;;;;4928976;28;20440;-79
2023/06/30 04:54:56;;;;;;;8.60;3.10;;;13.90;99.90;;;;;;4912589;28;20453;-80
2023/06/30 04:57:22;;;;;;;7.90;3.63;;;13.80;99.90;;;;;;4914713;28;20452;-78
2023/06/30 04:59:51;;;;;;;9.68;3.60;;;13.90;99.90;;;;;;4937825;29;20530;-81
2023/06/30 05:02:17;;;;;;;5.63;3.10;;;13.90;99.90;;;;;;4919775;28;20427;-81
2023/06/30 05:04:43;;;;;;;8.35;3.90;;;14.10;99.90;;;;;;4906466;28;20491;-85
2023/06/30 05:07:09;;;;;;;10.73;3.30;;;14.10;99.90;;;;;;4938090;28;20910;-89
2023/06/30 05:09:36;;;;;;;10.07;3.75;;;14.00;99.90;;;;;;4936528;29;20787;-82
2023/06/30 05:12:02;;;;;;;7.28;2.90;;;14.20;99.90;;;;;;4919948;29;20442;-82
2023/06/30 05:14:28;;;;;;;7.10;2.70;;;14.10;99.90;;;;;;4937764;28;20979;-83
2023/06/30 05:16:54;;;;;;;13.80;5.20;;;14.20;99.90;;;;;;4926009;28;20513;-82
2023/06/30 05:19:20;;;;;;;7.97;3.50;;;14.30;99.90;;;;;;4907496;28;20432;-84
2023/06/30 05:21:45;;;;;;;10.00;3.30;;;14.40;99.90;;;;;;4937563;28;20455;-84
2023/06/30 05:24:11;;;;;;;9.35;3.58;;;14.50;99.90;;;;;;4937654;29;20527;-80
2023/06/30 05:26:37;;;;;;;9.32;3.70;;;14.50;99.90;;;;;;4937688;29;20458;-81
2023/06/30 05:29:04;;;;;;;11.93;4.17;;;14.60;99.90;;;;;;4934989;29;20509;-81
2023/06/30 05:31:29;;;;;;;8.27;3.37;;;14.60;99.90;;;;;;4904951;28;20690;-83
2023/06/30 05:33:55;;;;;;;10.40;3.07;;;14.80;99.90;;;;;;4907636;28;20982;-82
2023/06/30 05:36:21;;;;;;;8.32;2.88;;;14.80;99.90;;;;;;4905656;29;20459;-79
2023/06/30 05:38:46;;;;;;;9.48;2.50;;;14.90;99.90;;;;;;4935058;29;20438;-82
2023/06/30 05:41:12;;;;;;;7.75;2.90;;;14.90;99.90;;;;;;4936563;29;20444;-82
2023/06/30 05:43:40;;;;;;;7.70;3.10;;;15.00;99.90;;;;;;4935841;28;20424;-82
2023/06/30 05:46:06;;;;;;;7.68;2.92;;;15.20;99.90;;;;;;4935861;28;20816;-80
2023/06/30 05:48:31;;;;;;;7.73;1.87;;;15.30;99.90;;;;;;4933083;29;20436;-81
2023/06/30 05:50:57;;;;;;;8.70;1.95;;;15.30;99.90;;;;;;4932537;28;20451;-79
2023/06/30 05:53:22;;;;;;;7.75;2.40;;;15.40;99.90;;;;;;4918879;29;20483;-83
2023/06/30 05:55:48;;;;;;;9.83;3.57;;;15.50;99.90;;;;;;4932982;28;20431;-80
2023/06/30 05:58:14;;;;;;;5.90;2.47;;;15.50;99.90;;;;;;4934477;29;20436;-81
2023/06/30 06:00:39;;;;;;;19.20;3.73;;;15.60;99.90;;;;;;4937158;28;20514;-82
2023/06/30 06:03:05;;;;;;;9.02;3.00;;;15.70;99.90;;;;;;4936149;29;20432;-84
2023/06/30 06:05:31;;;;;;;7.63;2.10;;;15.60;99.90;;;;;;4933212;28;20820;-82
2023/06/30 06:07:57;;;;;;;7.07;1.90;;;15.70;99.90;;;;;;4936133;28;20443;-82
2023/06/30 06:10:22;;;;;;;8.00;2.20;;;15.80;99.90;;;;;;4934318;28;20443;-82
2023/06/30 06:12:52;;;;;;;6.85;1.90;;;15.90;99.90;;;;;;4910302;28;20427;-85
2023/06/30 06:15:18;;;;;;;9.20;2.67;;;15.90;99.90;;;;;;4949093;28;20437;-84
2023/06/30 06:17:43;;;;;;;8.73;2.22;;;16.00;99.90;;;;;;4938213;28;20439;-81
2023/06/30 06:20:09;;;;;;;6.73;2.07;;;16.30;99.90;;;;;;4930972;29;20496;-83
2023/06/30 06:22:35;;;;;;;7.87;2.07;;;16.40;99.90;;;;;;4936558;28;20810;-81
2023/06/30 06:25:01;;;;;;;5.63;1.77;;;16.40;99.90;;;;;;4942362;29;20427;-84
2023/06/30 06:27:28;;;;;;;4.10;1.52;;;16.50;99.90;;;;;;4976890;28;20443;-84
2023/06/30 06:29:54;;;;;;;5.93;1.83;;;16.60;99.90;;;;;;5005169;28;20512;-83
2023/06/30 06:32:33;;;;;;;8.43;1.20;;;16.70;99.90;;;;;;4928950;28;20459;-81
2023/06/30 06:34:59;;;;;;;8.77;2.53;;;16.80;99.90;;;;;;4908403;28;20475;-84
2023/06/30 06:37:25;;;;;;;8.33;2.60;;;16.80;99.90;;;;;;4926415;29;20434;-83
2023/06/30 06:39:50;;;;;;;8.30;2.00;;;16.80;99.90;;;;;;4938866;28;20753;-81
2023/06/30 06:42:16;;;;;;;6.03;2.25;;;16.80;99.90;;;;;;4941123;28;20834;-85
2023/06/30 06:44:42;;;;;;;6.20;2.15;;;16.90;99.90;;;;;;4938509;29;20424;-85
2023/06/30 06:47:45;;;;;;;6.87;1.90;;;16.90;99.90;;;;;;4941480;29;20482;-82
2023/06/30 06:50:11;;;;;;;6.72;1.60;;;17.00;99.90;;;;;;4941251;29;20505;-80
2023/06/30 06:52:36;;;;;;;7.38;1.60;;;17.10;99.90;;;;;;4942179;29;20411;-84
2023/06/30 06:55:02;;;;;;;5.70;1.63;;;17.10;99.90;;;;;;4925193;29;20428;-87
2023/06/30 06:57:28;;;;;;;6.20;1.83;;;17.10;99.90;;;;;;4909472;28;20843;-82
2023/06/30 06:59:59;;;;;;;6.47;2.37;;;17.20;99.90;;;;;;4942069;29;20426;-86
2023/06/30 07:02:24;;;;;;;9.07;2.00;;;17.30;99.90;;;;;;4907229;29;20424;-83
2023/06/30 07:04:50;;;;;;;6.63;1.85;;;17.40;99.90;;;;;;4939846;29;20434;-85
2023/06/30 07:07:16;;;;;;;5.57;1.50;;;17.90;99.90;;;;;;4940136;29;20478;-84
2023/06/30 07:09:41;;;;;;;7.18;1.80;;;18.30;99.90;;;;;;4986027;28;20449;-81
2023/06/30 07:12:08;;;;;;;6.13;1.63;;;18.60;99.90;;;;;;4904252;28;20428;-83
2023/06/30 07:14:35;;;;;;;7.10;1.85;;;18.90;99.90;;;;;;4936984;29;20443;-84
2023/06/30 07:17:01;;;;;;;7.78;1.67;;;18.80;99.90;;;;;;4923037;28;20424;-83
2023/06/30 07:19:27;;;;;;;6.20;1.80;;;19.00;99.90;;;;;;4912549;28;20547;-83
2023/06/30 07:21:53;;;;;;;5.90;1.60;;;18.60;99.90;;;;;;4918668;28;20472;-81
2023/06/30 07:24:18;;;;;;;4.93;1.30;;;18.90;99.90;;;;;;4935125;29;20535;-83
2023/06/30 07:26:44;;;;;;;5.57;1.63;;;19.80;99.90;;;;;;4936053;29;20450;-82
2023/06/30 07:29:10;;;;;;;7.05;1.85;;;20.50;99.90;;;;;;4935781;28;20440;-83
2023/06/30 07:31:35;;;;;;;8.03;1.17;;;20.60;99.90;;;;;;4935539;28;20443;-86
2023/06/30 07:34:01;;;;;;;5.85;1.70;;;20.50;99.90;;;;;;4912618;29;20451;-84
2023/06/30 07:36:27;;;;;;;6.32;1.30;;;20.10;99.90;;;;;;4936205;29;20503;-84
2023/06/30 07:38:53;;;;;;;6.90;1.50;;;20.50;99.90;;;;;;4952087;28;20440;-86
2023/06/30 07:41:18;;;;;;;5.13;1.20;;;19.80;99.90;;;;;;4921825;28;20444;-82
2023/06/30 07:43:44;;;;;;;5.93;2.10;;;18.90;99.90;;;;;;4930830;28;20462;-82
2023/06/30 07:46:10;;;;;;;5.43;1.80;;;18.50;99.90;;;;;;4935658;29;20510;-88
2023/06/30 07:48:36;;;;;;;5.43;1.40;;;18.50;99.90;;;;;;4910880;29;20479;-87
2023/06/30 07:51:08;;;;;;;4.15;1.40;;;20.30;99.90;;;;;;4920427;28;20435;-83
2023/06/30 07:53:35;;;;;;;6.15;1.88;;;20.80;99.90;;;;;;4941371;28;20436;-87
2023/06/30 07:56:01;;;;;;;4.40;1.38;;;20.30;99.90;;;;;;4937695;28;20469;-85
2023/06/30 07:58:27;;;;;;;6.65;1.50;;;20.10;99.90;;;;;;4936487;28;20459;-84
2023/06/30 08:00:53;;;;;;;6.30;1.50;;;19.80;99.90;;;;;;4899345;28;20463;-83
2023/06/30 08:03:19;;;;;;;5.83;1.20;;;19.40;99.90;;;;;;4932090;28;20455;-83
2023/06/30 08:05:46;;;;;;;4.63;1.90;;;19.40;99.90;;;;;;4935551;28;20425;-84
2023/06/30 08:08:11;;;;;;;7.00;1.33;;;19.80;99.90;;;;;;4919180;28;20482;-86
2023/06/30 08:10:37;;;;;;;4.63;1.80;;;20.10;99.90;;;;;;4937474;28;20435;-84
2023/06/30 08:13:03;;;;;;;3.23;1.47;;;19.90;99.90;;;;;;4940922;29;20514;-87
2023/06/30 08:15:28;;;;;;;4.00;1.08;;;19.90;99.90;;;;;;4936498;29;20825;-83
2023/06/30 08:17:54;;;;;;;4.20;1.40;;;19.80;99.90;;;;;;4931186;29;20435;-86
2023/06/30 08:20:24;;;;;;;3.90;1.40;;;20.00;99.90;;;;;;4924746;28;20823;-84
2023/06/30 08:22:49;;;;;;;8.25;2.05;;;20.10;99.90;;;;;;4943457;28;20495;-87
2023/06/30 08:25:15;;;;;;;4.03;1.13;;;20.10;99.90;;;;;;4926769;29;20426;-86
2023/06/30 08:27:41;;;;;;;4.63;1.30;;;20.10;99.90;;;;;;4924907;28;20802;-84
2023/06/30 08:30:07;;;;;;;5.17;1.10;;;20.40;99.90;;;;;;4923361;29;20473;-86
2023/06/30 08:32:33;;;;;;;7.78;1.20;;;20.40;99.90;;;;;;4910207;29;20481;-85
2023/06/30 08:34:59;;;;;;;5.53;1.03;;;20.30;99.90;;;;;;4910910;28;20419;-85
2023/06/30 08:37:24;;;;;;;4.65;1.30;;;20.50;99.90;;;;;;4935267;28;20410;-85
2023/06/30 08:39:50;;;;;;;5.05;1.13;;;20.40;99.90;;;;;;4941930;28;20505;-88
2023/06/30 08:42:20;;;;;;;4.37;1.23;;;20.20;99.90;;;;;;4912215;28;20553;-86
2023/06/30 08:44:49;;;;;;;3.70;1.08;;;20.50;99.90;;;;;;4912292;28;20442;-86
2023/06/30 08:47:16;;;;;;;3.75;0.93;;;20.60;99.90;;;;;;4904213;28;20492;-84
2023/06/30 08:49:42;;;;;;;3.45;1.10;;;20.80;99.90;;;;;;4932034;28;20572;-83
2023/06/30 08:52:09;;;;;;;3.88;1.00;;;20.90;99.90;;;;;;5005192;28;20497;-85
2023/06/30 08:54:35;;;;;;;2.00;0.85;;;21.00;99.90;;;;;;4906870;28;20514;-84
2023/06/30 08:57:03;;;;;;;5.93;1.50;;;21.00;99.90;;;;;;4922923;28;20505;-82
2023/06/30 08:59:28;;;;;;;2.92;1.15;;;21.30;99.90;;;;;;4935430;28;20850;-81
2023/06/30 09:01:57;;;;;;;4.68;1.50;;;20.30;99.90;;;;;;4941281;28;20454;-82
2023/06/30 09:04:23;;;;;;;6.43;1.50;;;20.30;99.90;;;;;;4909241;28;20526;-87
2023/06/30 09:06:50;;;;;;;3.97;1.30;;;20.80;99.90;;;;;;4905585;28;20443;-79
2023/06/30 09:09:25;;;;;;;3.90;1.30;;;20.80;99.90;;;;;;4909626;28;20523;-84
2023/06/30 09:11:52;;;;;;;4.35;1.08;;;20.80;99.90;;;;;;4928883;29;20581;-83
2023/06/30 09:14:21;;;;;;;6.10;1.90;;;20.80;99.90;;;;;;4911127;29;20440;-83
2023/06/30 09:16:47;;;;;;;4.03;1.13;;;20.40;99.90;;;;;;4943974;28;20422;-87
2023/06/30 09:19:15;;;;;;;5.18;1.00;;;20.40;99.90;;;;;;4942557;29;20432;-87
2023/06/30 09:21:41;;;;;;;9.50;1.50;;;20.90;99.90;;;;;;4926336;28;20479;-84
2023/06/30 09:24:07;;;;;;;4.25;1.15;;;21.10;99.90;;;;;;5009060;28;20424;-88
2023/06/30 09:26:34;;;;;;;4.13;1.20;;;21.10;99.90;;;;;;4942206;28;20547;-88
2023/06/30 09:29:01;;;;;;;5.57;2.42;;;20.60;99.90;;;;;;4937607;28;20455;-82
2023/06/30 09:31:33;;;;;;;5.05;1.40;;;20.70;99.90;;;;;;4928554;29;20922;-82
2023/06/30 09:34:10;;;;;;;3.88;1.15;;;21.20;99.90;;;;;;4952785;28;20428;-85
2023/06/30 09:36:37;;;;;;;4.22;1.20;;;21.30;99.90;;;;;;4910489;28;20465;-85
2023/06/30 09:39:08;;;;;;;5.57;1.02;;;21.30;99.90;;;;;;4939713;29;20439;-91
2023/06/30 09:41:35;;;;;;;4.15;1.30;;;21.50;99.90;;;;;;4944762;28;20427;-85
2023/06/30 09:44:01;;;;;;;5.97;1.10;;;20.90;99.90;;;;;;5004162;28;20483;-78
2023/06/30 09:46:28;;;;;;;4.57;1.30;;;20.60;99.90;;;;;;4959616;28;21189;-80
2023/06/30 09:48:55;;;;;;;4.22;1.30;;;21.00;99.90;;;;;;4941418;28;20430;-76
2023/06/30 09:51:22;;;;;;;5.63;1.43;;;21.30;99.90;;;;;;4927887;28;20447;-77
2023/06/30 09:53:53;;;;;;;14.93;3.03;;;21.40;99.90;;;;;;4944586;28;20441;-84
2023/06/30 09:56:22;;;;;;;2.85;1.20;;;21.50;99.90;;;;;;4918491;29;20913;-82
2023/06/30 09:58:55;;;;;;;4.25;1.30;;;21.60;99.90;;;;;;4936705;28;20441;-87
2023/06/30 10:01:23;;;;;;;2.65;1.20;;;21.00;99.90;;;;;;4946162;29;20467;-84
2023/06/30 10:03:50;;;;;;;6.30;1.42;;;20.50;99.90;;;;;;4929883;29;20423;-90
2023/06/30 10:06:23;;;;;;;4.20;1.30;;;20.60;99.90;;;;;;4927755;28;20491;-81
2023/06/30 10:08:52;;;;;;;5.57;1.35;;;20.40;99.90;;;;;;4908803;28;20438;-86
2023/06/30 10:11:23;;;;;;;6.78;1.63;;;20.10;99.90;;;;;;4921087;29;20419;-86
2023/06/30 10:13:54;;;;;;;5.05;1.80;;;20.20;99.90;;;;;;4891763;29;20461;-90
2023/06/30 10:16:22;;;;;;;5.38;1.70;;;20.10;99.90;;;;;;4891057;29;20420;-84
2023/06/30 10:18:57;;;;;;;5.53;1.70;;;20.60;99.90;;;;;;4917794;29;20532;-89
2023/06/30 10:21:24;;;;;;;5.73;1.63;;;20.90;99.90;;;;;;4924448;29;20417;-79
2023/06/30 10:23:52;;;;;;;4.13;1.50;;;21.10;99.90;;;;;;4919606;29;20476;-82
2023/06/30 10:26:21;;;;;;;5.78;1.75;;;21.00;99.90;;;;;;4923085;29;20414;-86
2023/06/30 10:28:47;;;;;;;5.82;2.40;;;20.70;99.90;;;;;;4926123;29;20445;-86
2023/06/30 10:31:14;;;;;;;5.17;1.97;;;20.60;99.90;;;;;;4927089;29;20429;-82
2023/06/30 10:33:40;;;;;;;3.97;1.42;;;20.20;99.90;;;;;;4926487;29;20420;-82
2023/06/30 10:36:09;;;;;;;4.20;1.47;;;20.20;99.90;;;;;;4927918;29;20485;-85
2023/06/30 10:38:37;;;;;;;4.10;1.50;;;20.50;99.90;;;;;;4927430;29;20422;-91
2023/06/30 10:41:16;;;;;;;5.65;1.80;;;21.00;99.90;;;;;;4925807;29;20425;-83
2023/06/30 10:44:03;;;;;;;7.72;1.88;;;20.70;99.90;;;;;;4925879;28;20463;-88
2023/06/30 10:46:48;;;;;;;4.63;1.40;;;21.00;99.90;;;;;;4927537;28;20441;-83
2023/06/30 10:49:20;;;;;;;4.05;1.60;;;21.30;99.90;;;;;;4927356;29;20451;-88
2023/06/30 10:51:56;;;;;;;5.93;2.27;;;21.10;99.90;;;;;;4918164;29;20428;-77
2023/06/30 10:54:52;;;;;;;4.28;1.50;;;21.20;99.90;;;;;;4914099;29;20951;-83
2023/06/30 10:57:25;;;;;;;4.38;1.10;;;21.00;99.90;;;;;;4915134;29;20430;-80
2023/06/30 11:00:05;;;;;;;4.55;1.77;;;20.60;99.90;;;;;;4916919;28;20428;-79
2023/06/30 11:02:32;;;;;;;4.53;1.40;;;20.30;99.90;;;;;;4915941;28;20441;-84
2023/06/30 11:05:21;;;;;;;4.40;1.30;;;20.70;99.90;;;;;;4916419;29;20426;-80
2023/06/30 11:07:48;;;;;;;4.00;1.65;;;20.90;99.90;;;;;;4924585;28;20525;-87
2023/06/30 11:10:50;;;;;;;6.60;1.60;;;21.20;99.90;;;;;;4934585;29;20424;-80
2023/06/30 11:13:15;;;;;;;2.97;1.20;;;21.00;99.90;;;;;;4925186;28;20416;-86
2023/06/30 11:15:44;;;;;;;4.10;1.10;;;21.10;99.90;;;;;;4938105;28;20447;-79
2023/06/30 11:18:21;;;;;;;5.00;1.27;;;21.50;99.90;;;;;;5003552;28;20452;-85
2023/06/30 11:21:04;;;;;;;4.57;1.30;;;21.70;99.90;;;;;;4925808;28;20423;-82
2023/06/30 11:23:33;;;;;;;5.33;1.83;;;21.90;99.90;;;;;;4935387;28;20424;-82
2023/06/30 11:26:17;;;;;;;3.22;1.15;;;21.90;99.90;;;;;;4922128;29;20412;-81
2023/06/30 11:28:47;;;;;;;2.15;1.27;;;21.90;99.90;;;;;;4938870;28;20439;-82
2023/06/30 11:31:14;;;;;;;3.05;1.23;;;21.70;99.90;;;;;;4912022;28;20431;-82
2023/06/30 11:33:44;;;;;;;4.60;1.48;;;21.50;99.90;;;;;;4906164;28;20483;-82
2023/06/30 11:36:17;;;;;;;6.55;1.95;;;21.30;99.90;;;;;;4920459;29;20448;-81
2023/06/30 11:38:50;;;;;;;5.20;2.35;;;21.20;99.90;;;;;;4934641;28;20435;-84
2023/06/30 11:41:20;;;;;;;4.20;1.50;;;21.30;99.90;;;;;;4936562;28;20518;-81
2023/06/30 11:43:50;;;;;;;6.32;1.63;;;21.60;99.90;;;;;;4936534;28;20519;-82
2023/06/30 11:46:15;;;;;;;6.53;1.23;;;21.30;99.90;;;;;;4940478;29;20487;-81
2023/06/30 11:48:42;;;;;;;3.03;1.45;;;21.20;99.90;;;;;;4939213;28;20486;-78
2023/06/30 11:51:10;;;;;;;3.88;1.42;;;20.90;99.90;;;;;;4938985;29;20795;-82
2023/06/30 11:53:36;;;;;;;5.28;1.67;;;21.40;99.90;;;;;;4934446;28;20461;-79
2023/06/30 11:56:02;;;;;;;5.23;1.60;;;21.70;99.90;;;;;;4916716;29;20447;-80
2023/06/30 11:58:28;;;;;;;4.73;1.43;;;22.00;99.90;;;;;;4937275;29;20439;-81
2023/06/30 12:00:56;;;;;;;6.85;1.35;;;22.00;99.90;;;;;;4939218;29;20475;-80
2023/06/30 12:03:22;;;;;;;7.35;1.48;;;22.10;99.90;;;;;;4924510;29;20539;-79
2023/06/30 12:05:57;;;;;;;5.90;1.50;;;22.40;99.90;;;;;;4924129;29;20463;-82
2023/06/30 12:08:26;;;;;;;4.63;1.80;;;22.60;99.90;;;;;;4920714;29;20497;-82
2023/06/30 12:10:53;;;;;;;6.25;1.40;;;22.30;99.90;;;;;;4937819;28;20412;-80
2023/06/30 12:13:20;;;;;;;7.05;1.73;;;22.10;99.90;;;;;;4922226;29;20415;-81
2023/06/30 12:15:56;;;;;;;7.38;1.80;;;22.40;99.90;;;;;;4911136;28;20482;-83
2023/06/30 12:18:50;;;;;;;5.53;1.92;;;22.80;99.90;;;;;;5009717;28;20439;-83
2023/06/30 12:21:16;;;;;;;3.67;1.90;;;23.00;99.90;;;;;;4931344;28;20476;-84
2023/06/30 12:23:43;;;;;;;5.28;2.30;;;22.50;99.90;;;;;;4944039;28;20424;-83
2023/06/30 12:26:11;;;;;;;5.85;2.30;;;22.40;99.90;;;;;;4927235;28;20477;-89
2023/06/30 12:28:36;;;;;;;3.95;1.92;;;22.80;99.90;;;;;;4910885;28;20471;-82
2023/06/30 12:31:02;;;;;;;5.95;1.75;;;22.60;99.90;;;;;;4930011;29;20431;-83
2023/06/30 12:33:28;;;;;;;4.72;1.73;;;22.50;99.90;;;;;;4932333;28;20567;-79
2023/06/30 12:35:54;;;;;;;5.27;2.03;;;22.90;99.90;;;;;;4942361;28;20420;-85
2023/06/30 12:38:20;;;;;;;4.43;2.15;;;23.10;99.90;;;;;;4928461;28;20471;-80
2023/06/30 12:40:45;;;;;;;5.70;2.10;;;23.10;99.90;;;;;;4940482;28;20443;-83
2023/06/30 12:43:11;;;;;;;4.93;1.90;;;23.30;99.90;;;;;;4942197;29;21044;-82
2023/06/30 12:45:37;;;;;;;4.47;1.55;;;23.20;99.90;;;;;;4947129;28;20427;-79
2023/06/30 12:48:03;;;;;;;3.20;1.40;;;23.50;99.90;;;;;;4915848;28;20437;-81